sensor_id;sensor_type;location;lat;lon;timestamp;pressure;altitude;pressure_sealevel;temperature;humidity
18137;BME280;9194;42.632;23.298;2023-02-12T00:00:27;93441.72;;;0.58;51.30
18137;BME280;9194;42.632;23.298;2023-02-12T00:05:28;93423.41;;;0.80;49.76
18137;BME280;9194;42.632;23.298;2023-02-12T00:10:29;93443.59;;;0.83;48.47
18137;BME280;9194;42.632;23.298;2023-02-12T00:15:31;93442.75;;;0.92;48.36
18137;BME280;9194;42.632;23.298;2023-02-12T00:20:35;93444.56;;;1.09;47.76
18137;BME280;9194;42.632;23.298;2023-02-12T00:25:40;93444.38;;;0.93;50.62
18137;BME280;9194;42.632;23.298;2023-02-12T00:30:42;93424.31;;;1.06;47.76
18137;BME280;9194;42.632;23.298;2023-02-12T00:35:43;93419.50;;;1.03;48.45
18137;BME280;9194;42.632;23.298;2023-02-12T00:40:45;93400.97;;;1.27;46.80
18137;BME280;9194;42.632;23.298;2023-02-12T00:45:46;93401.97;;;1.34;46.92
18137;BME280;9194;42.632;23.298;2023-02-12T00:50:50;93383.63;;;1.39;43.84
18137;BME280;9194;42.632;23.298;2023-02-12T00:55:52;93383.84;;;1.45;44.34
18137;BME280;9194;42.632;23.298;2023-02-12T01:00:53;93394.50;;;1.41;45.85
18137;BME280;9194;42.632;23.298;2023-02-12T01:05:57;93376.41;;;1.42;45.76
18137;BME280;9194;42.632;23.298;2023-02-12T01:11:00;93353.84;;;1.46;44.65
18137;BME280;9194;42.632;23.298;2023-02-12T01:21:13;93368.53;;;1.79;42.53
18137;BME280;9194;42.632;23.298;2023-02-12T01:26:17;93371.41;;;1.58;45.04
18137;BME280;9194;42.632;23.298;2023-02-12T01:31:24;93390.56;;;1.46;46.87
18137;BME280;9194;42.632;23.298;2023-02-12T01:36:27;93391.56;;;1.00;49.89
18137;BME280;9194;42.632;23.298;2023-02-12T01:41:32;93377.22;;;0.90;51.58
18137;BME280;9194;42.632;23.298;2023-02-12T01:46:34;93390.66;;;0.74;52.01
18137;BME280;9194;42.632;23.298;2023-02-12T01:51:36;93372.66;;;0.83;52.05
18137;BME280;9194;42.632;23.298;2023-02-12T01:56:38;93357.88;;;0.77;52.34
18137;BME280;9194;42.632;23.298;2023-02-12T02:01:40;93354.81;;;0.92;52.75
18137;BME280;9194;42.632;23.298;2023-02-12T02:07:02;93355.25;;;0.87;54.66
18137;BME280;9194;42.632;23.298;2023-02-12T02:12:05;93356.00;;;0.97;54.84
18137;BME280;9194;42.632;23.298;2023-02-12T02:33:33;93369.84;;;1.04;57.49
18137;BME280;9194;42.632;23.298;2023-02-12T02:38:45;93347.38;;;0.71;59.97
18137;BME280;9194;42.632;23.298;2023-02-12T02:43:51;93370.81;;;0.76;61.74
18137;BME280;9194;42.632;23.298;2023-02-12T02:48:57;93369.69;;;1.06;59.87
18137;BME280;9194;42.632;23.298;2023-02-12T02:54:16;93365.81;;;1.02;62.94
18137;BME280;9194;42.632;23.298;2023-02-12T02:59:31;93372.41;;;1.22;63.38
18137;BME280;9194;42.632;23.298;2023-02-12T03:04:38;93373.84;;;1.07;66.18
18137;BME280;9194;42.632;23.298;2023-02-12T03:09:57;93377.72;;;1.11;66.07
18137;BME280;9194;42.632;23.298;2023-02-12T03:15:08;93363.25;;;1.19;65.10
18137;BME280;9194;42.632;23.298;2023-02-12T03:20:35;93367.41;;;1.38;63.71
18137;BME280;9194;42.632;23.298;2023-02-12T03:25:41;93360.53;;;1.21;64.72
18137;BME280;9194;42.632;23.298;2023-02-12T03:31:02;93357.81;;;1.22;63.44
18137;BME280;9194;42.632;23.298;2023-02-12T03:41:58;93381.34;;;1.18;64.00
18137;BME280;9194;42.632;23.298;2023-02-12T03:47:21;93382.59;;;1.32;59.65
18137;BME280;9194;42.632;23.298;2023-02-12T03:52:24;93375.47;;;1.26;59.16
18137;BME280;9194;42.632;23.298;2023-02-12T03:57:29;93374.44;;;1.36;58.17
18137;BME280;9194;42.632;23.298;2023-02-12T04:02:32;93377.69;;;1.38;55.72
18137;BME280;9194;42.632;23.298;2023-02-12T04:07:35;93367.56;;;1.37;58.31
18137;BME280;9194;42.632;23.298;2023-02-12T04:18:24;93363.69;;;1.33;58.98
18137;BME280;9194;42.632;23.298;2023-02-12T04:34:17;93375.94;;;1.21;62.17
18137;BME280;9194;42.632;23.298;2023-02-12T04:39:23;93385.94;;;1.14;60.02
18137;BME280;9194;42.632;23.298;2023-02-12T04:44:31;93393.69;;;1.22;62.06
18137;BME280;9194;42.632;23.298;2023-02-12T04:49:33;93404.19;;;1.11;62.86
18137;BME280;9194;42.632;23.298;2023-02-12T04:54:38;93403.91;;;1.14;59.29
18137;BME280;9194;42.632;23.298;2023-02-12T04:59:39;93413.13;;;1.07;61.12
18137;BME280;9194;42.632;23.298;2023-02-12T05:04:40;93410.78;;;1.14;59.38
18137;BME280;9194;42.632;23.298;2023-02-12T05:09:42;93439.25;;;0.93;62.08
18137;BME280;9194;42.632;23.298;2023-02-12T05:14:43;93433.53;;;0.99;62.48
18137;BME280;9194;42.632;23.298;2023-02-12T05:19:46;93424.72;;;0.84;61.35
18137;BME280;9194;42.632;23.298;2023-02-12T05:24:47;93419.13;;;0.71;65.35
18137;BME280;9194;42.632;23.298;2023-02-12T05:29:55;93444.34;;;0.38;74.80
18137;BME280;9194;42.632;23.298;2023-02-12T05:34:56;93443.63;;;0.09;79.57
18137;BME280;9194;42.632;23.298;2023-02-12T05:39:58;93445.63;;;0.15;79.30
18137;BME280;9194;42.632;23.298;2023-02-12T05:44:59;93454.13;;;0.16;80.16
18137;BME280;9194;42.632;23.298;2023-02-12T05:50:00;93462.78;;;0.42;79.21
18137;BME280;9194;42.632;23.298;2023-02-12T05:55:02;93462.53;;;0.45;79.98
18137;BME280;9194;42.632;23.298;2023-02-12T06:00:05;93452.91;;;0.47;81.79
18137;BME280;9194;42.632;23.298;2023-02-12T06:05:13;93469.66;;;0.41;83.63
18137;BME280;9194;42.632;23.298;2023-02-12T06:10:14;93462.78;;;0.42;83.91
18137;BME280;9194;42.632;23.298;2023-02-12T06:15:16;93457.69;;;0.32;84.90
18137;BME280;9194;42.632;23.298;2023-02-12T06:20:17;93467.34;;;0.48;81.71
18137;BME280;9194;42.632;23.298;2023-02-12T06:25:18;93463.47;;;0.44;82.41
18137;BME280;9194;42.632;23.298;2023-02-12T06:30:20;93456.94;;;0.59;82.78
18137;BME280;9194;42.632;23.298;2023-02-12T06:35:21;93471.66;;;0.57;86.66
18137;BME280;9194;42.632;23.298;2023-02-12T06:40:23;93470.94;;;0.65;88.44
18137;BME280;9194;42.632;23.298;2023-02-12T06:45:24;93489.81;;;0.64;86.99
18137;BME280;9194;42.632;23.298;2023-02-12T06:50:26;93481.34;;;0.54;87.47
18137;BME280;9194;42.632;23.298;2023-02-12T06:55:27;93478.41;;;0.49;88.88
18137;BME280;9194;42.632;23.298;2023-02-12T07:00:28;93472.34;;;0.50;85.70
18137;BME280;9194;42.632;23.298;2023-02-12T07:05:30;93472.84;;;0.63;85.48
18137;BME280;9194;42.632;23.298;2023-02-12T07:10:33;93479.84;;;0.61;86.21
18137;BME280;9194;42.632;23.298;2023-02-12T07:15:37;93471.34;;;0.70;85.67
18137;BME280;9194;42.632;23.298;2023-02-12T07:20:39;93473.91;;;0.88;85.58
18137;BME280;9194;42.632;23.298;2023-02-12T07:25:40;93466.41;;;0.86;85.84
18137;BME280;9194;42.632;23.298;2023-02-12T07:30:42;93470.78;;;0.94;86.68
18137;BME280;9194;42.632;23.298;2023-02-12T07:35:43;93474.34;;;0.93;85.57
18137;BME280;9194;42.632;23.298;2023-02-12T07:40:44;93482.41;;;0.88;86.73
18137;BME280;9194;42.632;23.298;2023-02-12T07:45:45;93493.09;;;0.93;87.33
18137;BME280;9194;42.632;23.298;2023-02-12T07:50:47;93504.72;;;0.78;87.98
18137;BME280;9194;42.632;23.298;2023-02-12T07:55:48;93495.66;;;0.83;89.38
18137;BME280;9194;42.632;23.298;2023-02-12T08:00:49;93499.78;;;0.67;91.14
18137;BME280;9194;42.632;23.298;2023-02-12T08:05:52;93500.53;;;0.77;89.81
18137;BME280;9194;42.632;23.298;2023-02-12T08:10:54;93505.06;;;0.56;91.61
18137;BME280;9194;42.632;23.298;2023-02-12T08:16:08;93516.91;;;0.66;92.69
18137;BME280;9194;42.632;23.298;2023-02-12T08:21:15;93508.16;;;0.69;92.41
18137;BME280;9194;42.632;23.298;2023-02-12T08:26:28;93519.88;;;0.62;93.54
18137;BME280;9194;42.632;23.298;2023-02-12T08:31:33;93531.84;;;0.71;93.75
18137;BME280;9194;42.632;23.298;2023-02-12T08:36:37;93531.69;;;0.82;92.97
18137;BME280;9194;42.632;23.298;2023-02-12T08:41:38;93541.22;;;0.90;93.22
18137;BME280;9194;42.632;23.298;2023-02-12T08:46:45;93547.03;;;0.92;92.01
18137;BME280;9194;42.632;23.298;2023-02-12T08:51:49;93550.47;;;1.10;91.60
18137;BME280;9194;42.632;23.298;2023-02-12T08:56:59;93554.06;;;1.17;90.52
18137;BME280;9194;42.632;23.298;2023-02-12T09:02:00;93561.75;;;1.17;90.36
18137;BME280;9194;42.632;23.298;2023-02-12T09:07:03;93560.47;;;1.03;93.10
18137;BME280;9194;42.632;23.298;2023-02-12T09:12:05;93569.53;;;0.98;93.01
18137;BME280;9194;42.632;23.298;2023-02-12T09:17:06;93579.78;;;0.98;93.04
18137;BME280;9194;42.632;23.298;2023-02-12T09:22:08;93588.94;;;1.00;95.00
18137;BME280;9194;42.632;23.298;2023-02-12T09:27:09;93581.16;;;0.92;94.60
18137;BME280;9194;42.632;23.298;2023-02-12T09:32:10;93577.31;;;1.15;94.47
18137;BME280;9194;42.632;23.298;2023-02-12T09:37:11;93575.72;;;1.05;93.73
18137;BME280;9194;42.632;23.298;2023-02-12T09:42:26;93583.56;;;1.31;92.79
18137;BME280;9194;42.632;23.298;2023-02-12T09:47:44;93572.56;;;1.11;93.09
18137;BME280;9194;42.632;23.298;2023-02-12T09:52:48;93570.69;;;1.13;93.03
18137;BME280;9194;42.632;23.298;2023-02-12T09:57:50;93575.38;;;1.17;92.37
18137;BME280;9194;42.632;23.298;2023-02-12T10:02:52;93571.88;;;1.18;92.30
18137;BME280;9194;42.632;23.298;2023-02-12T10:08:20;93576.50;;;1.42;91.64
18137;BME280;9194;42.632;23.298;2023-02-12T10:13:38;93591.16;;;1.77;89.93
18137;BME280;9194;42.632;23.298;2023-02-12T10:24:31;93583.75;;;2.88;86.04
18137;BME280;9194;42.632;23.298;2023-02-12T10:29:38;93574.66;;;2.76;85.20
18137;BME280;9194;42.632;23.298;2023-02-12T10:34:42;93589.72;;;2.71;85.28
18137;BME280;9194;42.632;23.298;2023-02-12T10:40:16;93583.63;;;2.98;82.38
18137;BME280;9194;42.632;23.298;2023-02-12T10:45:23;93583.81;;;2.97;84.18
18137;BME280;9194;42.632;23.298;2023-02-12T10:50:49;93582.03;;;2.71;83.78
18137;BME280;9194;42.632;23.298;2023-02-12T11:06:30;93580.97;;;3.92;79.19
18137;BME280;9194;42.632;23.298;2023-02-12T11:11:37;93591.75;;;3.45;79.43
18137;BME280;9194;42.632;23.298;2023-02-12T11:16:45;93594.38;;;3.19;81.87
18137;BME280;9194;42.632;23.298;2023-02-12T11:22:06;93586.47;;;3.21;82.72
18137;BME280;9194;42.632;23.298;2023-02-12T11:32:18;93585.97;;;3.51;80.08
18137;BME280;9194;42.632;23.298;2023-02-12T11:37:25;93583.97;;;3.71;80.55
18137;BME280;9194;42.632;23.298;2023-02-12T11:42:28;93570.91;;;4.71;77.10
18137;BME280;9194;42.632;23.298;2023-02-12T11:47:34;93581.63;;;4.02;78.07
18137;BME280;9194;42.632;23.298;2023-02-12T11:52:37;93575.06;;;4.80;77.52
18137;BME280;9194;42.632;23.298;2023-02-12T11:57:47;93575.56;;;4.51;76.31
18137;BME280;9194;42.632;23.298;2023-02-12T12:03:03;93579.25;;;4.33;75.89
18137;BME280;9194;42.632;23.298;2023-02-12T12:08:26;93582.97;;;4.63;74.80
18137;BME280;9194;42.632;23.298;2023-02-12T12:13:34;93596.09;;;3.87;77.65
18137;BME280;9194;42.632;23.298;2023-02-12T12:18:46;93600.97;;;4.14;80.43
18137;BME280;9194;42.632;23.298;2023-02-12T12:24:21;93591.66;;;4.37;76.16
18137;BME280;9194;42.632;23.298;2023-02-12T12:29:53;93598.75;;;4.19;76.32
18137;BME280;9194;42.632;23.298;2023-02-12T12:34:57;93602.59;;;4.15;77.10
18137;BME280;9194;42.632;23.298;2023-02-12T12:45:18;93614.84;;;4.13;76.86
18137;BME280;9194;42.632;23.298;2023-02-12T13:01:41;93624.34;;;4.21;76.47
18137;BME280;9194;42.632;23.298;2023-02-12T13:12:47;93628.97;;;4.09;79.41
18137;BME280;9194;42.632;23.298;2023-02-12T13:29:20;93645.03;;;3.27;83.48
18137;BME280;9194;42.632;23.298;2023-02-12T13:34:26;93644.69;;;3.22;83.84
18137;BME280;9194;42.632;23.298;2023-02-12T13:39:36;93640.56;;;3.55;82.42
18137;BME280;9194;42.632;23.298;2023-02-12T13:56:04;93670.81;;;3.09;84.87
18137;BME280;9194;42.632;23.298;2023-02-12T14:01:09;93661.78;;;2.79;87.66
18137;BME280;9194;42.632;23.298;2023-02-12T14:11:24;93671.59;;;3.27;86.20
18137;BME280;9194;42.632;23.298;2023-02-12T14:21:34;93696.63;;;3.00;85.96
18137;BME280;9194;42.632;23.298;2023-02-12T14:26:36;93698.41;;;2.81;88.28
18137;BME280;9194;42.632;23.298;2023-02-12T14:31:38;93704.88;;;2.85;87.85
18137;BME280;9194;42.632;23.298;2023-02-12T14:36:46;93707.00;;;3.08;88.38
18137;BME280;9194;42.632;23.298;2023-02-12T14:52:37;93739.31;;;2.75;91.41
18137;BME280;9194;42.632;23.298;2023-02-12T14:57:40;93732.88;;;2.71;91.29
18137;BME280;9194;42.632;23.298;2023-02-12T15:24:25;93788.72;;;2.51;89.47
18137;BME280;9194;42.632;23.298;2023-02-12T15:29:30;93806.50;;;2.44;90.22
18137;BME280;9194;42.632;23.298;2023-02-12T15:34:36;93811.59;;;2.27;91.30
18137;BME280;9194;42.632;23.298;2023-02-12T15:39:42;93815.81;;;2.18;94.16
18137;BME280;9194;42.632;23.298;2023-02-12T15:44:44;93822.06;;;2.06;94.19
18137;BME280;9194;42.632;23.298;2023-02-12T15:49:45;93830.38;;;1.90;95.04
18137;BME280;9194;42.632;23.298;2023-02-12T15:54:47;93834.72;;;1.80;96.46
18137;BME280;9194;42.632;23.298;2023-02-12T15:59:52;93827.56;;;1.74;95.94
18137;BME280;9194;42.632;23.298;2023-02-12T16:04:57;93834.63;;;1.62;96.10
18137;BME280;9194;42.632;23.298;2023-02-12T16:09:59;93856.25;;;1.50;96.15
18137;BME280;9194;42.632;23.298;2023-02-12T16:15:01;93866.09;;;1.45;96.83
18137;BME280;9194;42.632;23.298;2023-02-12T16:25:30;93885.28;;;1.22;100.00
18137;BME280;9194;42.632;23.298;2023-02-12T16:30:39;93897.94;;;1.14;100.00
18137;BME280;9194;42.632;23.298;2023-02-12T16:35:42;93902.38;;;1.02;100.00
18137;BME280;9194;42.632;23.298;2023-02-12T16:46:16;93913.19;;;0.56;100.00
18137;BME280;9194;42.632;23.298;2023-02-12T16:51:26;93918.59;;;0.32;100.00
18137;BME280;9194;42.632;23.298;2023-02-12T16:56:35;93926.19;;;0.13;100.00
18137;BME280;9194;42.632;23.298;2023-02-12T17:01:38;93929.91;;;-0.01;100.00
18137;BME280;9194;42.632;23.298;2023-02-12T17:06:40;93935.59;;;-0.18;100.00
18137;BME280;9194;42.632;23.298;2023-02-12T17:11:41;93953.22;;;-0.35;100.00
18137;BME280;9194;42.632;23.298;2023-02-12T17:16:43;93952.47;;;-0.47;100.00
18137;BME280;9194;42.632;23.298;2023-02-12T17:21:45;93960.91;;;-0.67;100.00
18137;BME280;9194;42.632;23.298;2023-02-12T17:26:50;93979.28;;;-0.73;100.00
18137;BME280;9194;42.632;23.298;2023-02-12T17:31:51;93996.97;;;-0.93;100.00
18137;BME280;9194;42.632;23.298;2023-02-12T17:36:57;94007.78;;;-1.00;100.00
18137;BME280;9194;42.632;23.298;2023-02-12T17:41:58;94000.34;;;-1.03;100.00
18137;BME280;9194;42.632;23.298;2023-02-12T17:47:02;93997.34;;;-1.08;100.00
18137;BME280;9194;42.632;23.298;2023-02-12T17:52:03;94016.41;;;-1.12;100.00
18137;BME280;9194;42.632;23.298;2023-02-12T17:57:05;94022.53;;;-1.15;100.00
18137;BME280;9194;42.632;23.298;2023-02-12T18:02:07;94025.44;;;-1.19;100.00
18137;BME280;9194;42.632;23.298;2023-02-12T18:07:08;94021.38;;;-1.22;100.00
18137;BME280;9194;42.632;23.298;2023-02-12T18:12:09;94026.16;;;-1.17;100.00
18137;BME280;9194;42.632;23.298;2023-02-12T18:17:13;94035.66;;;-0.97;100.00
18137;BME280;9194;42.632;23.298;2023-02-12T18:22:15;94023.94;;;-0.89;100.00
18137;BME280;9194;42.632;23.298;2023-02-12T18:27:17;94007.88;;;-0.79;100.00
18137;BME280;9194;42.632;23.298;2023-02-12T18:32:18;94009.34;;;-0.66;100.00
18137;BME280;9194;42.632;23.298;2023-02-12T18:37:20;94012.94;;;-0.57;100.00
18137;BME280;9194;42.632;23.298;2023-02-12T18:42:21;94003.47;;;-0.46;100.00
18137;BME280;9194;42.632;23.298;2023-02-12T18:47:23;94009.25;;;-0.32;100.00
18137;BME280;9194;42.632;23.298;2023-02-12T18:52:24;94014.56;;;-0.24;100.00
18137;BME280;9194;42.632;23.298;2023-02-12T18:57:25;94027.69;;;-0.18;100.00
18137;BME280;9194;42.632;23.298;2023-02-12T19:02:28;94036.16;;;-0.17;100.00
18137;BME280;9194;42.632;23.298;2023-02-12T19:07:29;94059.25;;;0.04;100.00
18137;BME280;9194;42.632;23.298;2023-02-12T19:12:30;94055.81;;;-0.07;100.00
18137;BME280;9194;42.632;23.298;2023-02-12T19:17:32;94064.16;;;-0.05;100.00
18137;BME280;9194;42.632;23.298;2023-02-12T19:22:33;94068.81;;;-0.10;100.00
18137;BME280;9194;42.632;23.298;2023-02-12T19:27:34;94065.22;;;-0.07;100.00
18137;BME280;9194;42.632;23.298;2023-02-12T19:32:36;94059.66;;;-0.12;100.00
18137;BME280;9194;42.632;23.298;2023-02-12T19:37:38;94063.19;;;-0.24;100.00
18137;BME280;9194;42.632;23.298;2023-02-12T19:42:39;94072.06;;;-0.39;100.00
18137;BME280;9194;42.632;23.298;2023-02-12T19:47:41;94071.50;;;-0.54;100.00
18137;BME280;9194;42.632;23.298;2023-02-12T19:52:42;94080.03;;;-0.65;100.00
18137;BME280;9194;42.632;23.298;2023-02-12T19:57:43;94088.50;;;-0.75;100.00
18137;BME280;9194;42.632;23.298;2023-02-12T20:02:47;94090.59;;;-0.92;100.00
18137;BME280;9194;42.632;23.298;2023-02-12T20:07:49;94106.28;;;-1.07;100.00
18137;BME280;9194;42.632;23.298;2023-02-12T20:12:50;94103.56;;;-1.28;100.00
18137;BME280;9194;42.632;23.298;2023-02-12T20:17:52;94113.66;;;-1.49;100.00
18137;BME280;9194;42.632;23.298;2023-02-12T20:22:53;94118.72;;;-1.60;100.00
18137;BME280;9194;42.632;23.298;2023-02-12T20:27:54;94118.69;;;-1.71;100.00
18137;BME280;9194;42.632;23.298;2023-02-12T20:32:55;94114.47;;;-1.83;100.00
18137;BME280;9194;42.632;23.298;2023-02-12T20:37:57;94121.38;;;-1.96;100.00
18137;BME280;9194;42.632;23.298;2023-02-12T20:42:59;94120.84;;;-2.13;100.00
18137;BME280;9194;42.632;23.298;2023-02-12T20:48:01;94127.53;;;-2.23;100.00
18137;BME280;9194;42.632;23.298;2023-02-12T20:53:03;94132.13;;;-2.28;100.00
18137;BME280;9194;42.632;23.298;2023-02-12T20:58:06;94125.72;;;-2.33;100.00
18137;BME280;9194;42.632;23.298;2023-02-12T21:03:07;94128.72;;;-2.39;100.00
18137;BME280;9194;42.632;23.298;2023-02-12T21:08:08;94147.16;;;-2.49;100.00
18137;BME280;9194;42.632;23.298;2023-02-12T21:13:09;94157.88;;;-2.56;100.00
18137;BME280;9194;42.632;23.298;2023-02-12T21:18:11;94168.09;;;-2.56;100.00
18137;BME280;9194;42.632;23.298;2023-02-12T21:23:12;94164.34;;;-2.63;100.00
18137;BME280;9194;42.632;23.298;2023-02-12T21:28:13;94158.84;;;-2.70;100.00
18137;BME280;9194;42.632;23.298;2023-02-12T21:33:15;94163.63;;;-2.65;100.00
18137;BME280;9194;42.632;23.298;2023-02-12T21:38:16;94155.06;;;-2.64;100.00
18137;BME280;9194;42.632;23.298;2023-02-12T21:43:17;94167.31;;;-2.69;100.00
18137;BME280;9194;42.632;23.298;2023-02-12T21:48:18;94166.19;;;-2.78;100.00
18137;BME280;9194;42.632;23.298;2023-02-12T21:53:19;94171.81;;;-2.85;100.00
18137;BME280;9194;42.632;23.298;2023-02-12T21:58:22;94188.53;;;-2.81;100.00
18137;BME280;9194;42.632;23.298;2023-02-12T22:03:23;94202.38;;;-2.85;100.00
18137;BME280;9194;42.632;23.298;2023-02-12T22:08:25;94195.84;;;-2.90;100.00
18137;BME280;9194;42.632;23.298;2023-02-12T22:13:26;94197.06;;;-2.95;100.00
18137;BME280;9194;42.632;23.298;2023-02-12T22:18:27;94195.44;;;-2.96;100.00
18137;BME280;9194;42.632;23.298;2023-02-12T22:23:29;94198.22;;;-2.99;100.00
18137;BME280;9194;42.632;23.298;2023-02-12T22:28:30;94196.78;;;-3.03;100.00
18137;BME280;9194;42.632;23.298;2023-02-12T22:33:31;94201.06;;;-3.04;100.00
18137;BME280;9194;42.632;23.298;2023-02-12T22:38:33;94201.34;;;-3.08;100.00
18137;BME280;9194;42.632;23.298;2023-02-12T22:43:36;94207.56;;;-3.12;100.00
18137;BME280;9194;42.632;23.298;2023-02-12T22:48:38;94218.78;;;-3.15;100.00
18137;BME280;9194;42.632;23.298;2023-02-12T22:53:40;94217.34;;;-3.19;100.00
18137;BME280;9194;42.632;23.298;2023-02-12T22:58:41;94215.69;;;-3.20;100.00
18137;BME280;9194;42.632;23.298;2023-02-12T23:03:43;94215.59;;;-3.18;100.00
18137;BME280;9194;42.632;23.298;2023-02-12T23:08:49;94220.00;;;-3.20;100.00
18137;BME280;9194;42.632;23.298;2023-02-12T23:13:51;94211.00;;;-3.26;100.00
18137;BME280;9194;42.632;23.298;2023-02-12T23:18:56;94225.75;;;-3.31;100.00
18137;BME280;9194;42.632;23.298;2023-02-12T23:23:58;94221.63;;;-3.32;100.00
18137;BME280;9194;42.632;23.298;2023-02-12T23:28:59;94217.31;;;-3.32;100.00
18137;BME280;9194;42.632;23.298;2023-02-12T23:34:00;94226.59;;;-3.31;100.00
18137;BME280;9194;42.632;23.298;2023-02-12T23:39:02;94241.97;;;-3.32;100.00
18137;BME280;9194;42.632;23.298;2023-02-12T23:44:05;94241.13;;;-3.45;100.00
18137;BME280;9194;42.632;23.298;2023-02-12T23:49:07;94256.69;;;-3.50;100.00
18137;BME280;9194;42.632;23.298;2023-02-12T23:54:09;94248.13;;;-3.49;100.00
18137;BME280;9194;42.632;23.298;2023-02-12T23:59:10;94238.16;;;-3.52;100.00
